Time;durP1;ratioP1;P1;durP2;ratioP2;P2;SDS_P1;SDS_P2;PMS_P1;PMS_P2;Temp;Humidity;BMP_temperature;BMP_pressure;BME280_temperature;BME280_humidity;BME280_pressure;Samples;Min_cycle;Max_cycle;Signal;HPM_P1;HPM_P2
2022/07/19 00:02:12;;;;;;;7.72;2.22;;;16.30;69.10;;;;;;4883214;29;20048;-86
2022/07/19 00:04:40;;;;;;;7.95;2.17;;;16.30;70.80;;;;;;4867852;29;20037;-84
2022/07/19 00:07:14;;;;;;;5.45;2.00;;;16.30;70.70;;;;;;4867551;29;20292;-86
2022/07/19 00:10:14;;;;;;;4.82;1.92;;;16.20;71.30;;;;;;4883445;29;20041;-81
2022/07/19 00:12:46;;;;;;;5.93;1.95;;;16.10;70.50;;;;;;4867783;29;20127;-85
2022/07/19 00:15:35;;;;;;;4.45;1.98;;;16.00;71.40;;;;;;4883055;29;20048;-83
2022/07/19 00:18:20;;;;;;;4.55;2.13;;;16.00;71.30;;;;;;4867178;29;20052;-88
2022/07/19 00:24:11;;;;;;;4.55;1.92;;;15.90;71.30;;;;;;4883447;29;20071;-87
2022/07/19 00:27:16;;;;;;;5.22;2.00;;;15.90;71.60;;;;;;4808746;29;20398;-87
2022/07/19 00:30:06;;;;;;;4.32;1.65;;;15.90;71.30;;;;;;4793653;29;20034;-87
2022/07/19 00:32:47;;;;;;;4.20;1.85;;;16.50;72.10;;;;;;4808173;29;20284;-87
2022/07/19 00:35:27;;;;;;;4.60;1.92;;;15.90;71.70;;;;;;4810139;29;20510;-84
2022/07/19 00:37:56;;;;;;;6.72;2.15;;;16.00;72.90;;;;;;4808976;29;20273;-86
2022/07/19 00:40:23;;;;;;;4.50;2.10;;;15.90;72.40;;;;;;4837561;29;20404;-86
2022/07/19 00:42:52;;;;;;;3.88;1.70;;;15.90;72.20;;;;;;4874945;29;20060;-86
2022/07/19 00:45:31;;;;;;;6.78;1.90;;;15.90;72.50;;;;;;4885389;29;20051;-84
2022/07/19 00:47:57;;;;;;;5.25;1.83;;;16.40;73.00;;;;;;4885769;29;20036;-87
2022/07/19 00:50:23;;;;;;;5.00;1.70;;;15.90;72.40;;;;;;4901319;29;20040;-82
2022/07/19 00:53:00;;;;;;;6.47;2.17;;;15.90;72.50;;;;;;4885784;29;20051;-89
2022/07/19 00:55:27;;;;;;;6.25;2.03;;;15.80;73.10;;;;;;4886579;29;20297;-87
2022/07/19 00:57:56;;;;;;;5.15;2.10;;;15.80;73.60;;;;;;4885764;29;20532;-87
2022/07/19 01:00:23;;;;;;;5.00;2.28;;;15.70;74.00;;;;;;4901024;29;20358;-87
2022/07/19 01:02:51;;;;;;;3.70;1.90;;;15.70;74.40;;;;;;4916215;29;20033;-87
2022/07/19 01:05:16;;;;;;;4.18;1.80;;;15.60;74.70;;;;;;4905466;29;20047;-87
2022/07/19 01:10:18;;;;;;;3.88;1.70;;;15.50;75.50;;;;;;3023138;27;20040;-87
2022/07/19 01:21:40;;;;;;;5.63;2.17;;;15.20;77.30;;;;;;4956158;23;20358;-87
2022/07/19 01:24:48;;;;;;;3.30;1.85;;;15.20;77.40;;;;;;4887223;29;20187;-88
2022/07/19 01:30:02;;;;;;;2.25;1.38;;;15.00;78.50;;;;;;4990103;23;20056;-87
2022/07/19 01:32:28;;;;;;;4.55;2.05;;;15.00;78.30;;;;;;4887045;29;20036;-88
2022/07/19 01:34:56;;;;;;;6.00;2.05;;;15.00;79.20;;;;;;4886960;29;20402;-87
2022/07/19 01:37:22;;;;;;;3.03;1.83;;;14.90;79.50;;;;;;4887041;29;20040;-87
2022/07/19 01:39:47;;;;;;;3.10;1.60;;;14.90;79.30;;;;;;4886245;29;20036;-85
2022/07/19 01:42:13;;;;;;;3.47;1.65;;;14.90;79.30;;;;;;4904040;29;20090;-84
2022/07/19 01:44:39;;;;;;;5.38;2.13;;;14.90;80.00;;;;;;4903759;29;20335;-87
2022/07/19 01:47:04;;;;;;;5.45;1.85;;;14.90;79.90;;;;;;4903218;29;20039;-87
2022/07/19 01:49:30;;;;;;;9.82;2.20;;;14.90;80.50;;;;;;4886217;29;20451;-86
2022/07/19 01:51:56;;;;;;;5.38;2.50;;;14.90;80.30;;;;;;4902960;29;20036;-85
2022/07/19 01:54:22;;;;;;;3.72;1.95;;;14.90;80.50;;;;;;4886208;29;20062;-84
2022/07/19 01:56:48;;;;;;;3.05;1.75;;;14.80;80.80;;;;;;4902976;29;20409;-89
2022/07/19 01:59:17;;;;;;;4.43;1.70;;;14.80;81.10;;;;;;4885975;29;20315;-83
2022/07/19 02:01:42;;;;;;;6.47;2.13;;;14.60;82.00;;;;;;4902708;29;20051;-85
2022/07/19 02:07:13;;;;;;;5.47;2.45;;;14.60;83.20;;;;;;4881094;29;20382;-87
2022/07/19 02:09:57;;;;;;;5.65;2.45;;;14.50;84.10;;;;;;4864833;29;20068;-86
2022/07/19 02:12:42;;;;;;;6.25;2.00;;;14.50;83.80;;;;;;4880961;29;20111;-84
2022/07/19 02:15:08;;;;;;;7.13;1.92;;;14.70;83.50;;;;;;4865447;29;20032;-88
2022/07/19 02:17:40;;;;;;;5.43;2.10;;;14.50;84.40;;;;;;4863030;29;20096;-86
2022/07/19 02:23:17;;;;;;;8.68;2.13;;;14.40;85.10;;;;;;3138434;27;20558;-89
2022/07/19 02:25:48;;;;;;;5.65;2.03;;;14.30;89.30;;;;;;4920943;29;20053;-89
2022/07/19 02:28:22;;;;;;;5.22;2.08;;;14.30;84.80;;;;;;4898821;29;20527;-84
2022/07/19 02:31:07;;;;;;;5.07;2.28;;;;;;;;;;4898928;29;20087;-88
2022/07/19 02:33:50;;;;;;;6.63;1.90;;;14.30;85.10;;;;;;4899630;29;20032;-88
2022/07/19 02:36:18;;;;;;;4.68;2.03;;;14.20;87.10;;;;;;4899676;29;20036;-90
2022/07/19 02:42:16;;;;;;;5.38;2.20;;;14.80;87.60;;;;;;4899984;29;20820;-88
2022/07/19 02:44:48;;;;;;;4.22;2.00;;;14.10;88.80;;;;;;4899387;29;20060;-88
2022/07/19 02:47:14;;;;;;;4.20;1.67;;;14.10;88.80;;;;;;4899267;29;20587;-87
2022/07/19 02:49:40;;;;;;;4.53;2.38;;;14.10;87.80;;;;;;4899383;29;20039;-83
2022/07/19 02:52:12;;;;;;;5.15;2.17;;;14.00;88.40;;;;;;4921123;23;20059;-89
2022/07/19 02:54:40;;;;;;;5.35;1.75;;;13.90;89.40;;;;;;4904175;29;20035;-88
2022/07/19 02:57:08;;;;;;;3.80;2.10;;;14.00;89.20;;;;;;4904026;29;20031;-84
2022/07/19 03:02:37;;;;;;;4.28;2.00;;;;;;;;;;4921523;29;20106;-85
2022/07/19 03:05:03;;;;;;;2.53;1.55;;;13.80;89.80;;;;;;4904248;29;20046;-88
2022/07/19 03:07:29;;;;;;;5.93;2.25;;;13.80;90.30;;;;;;4903692;29;20126;-88
2022/07/19 03:09:57;;;;;;;4.25;1.77;;;13.70;90.40;;;;;;4921031;29;20134;-84
2022/07/19 03:12:23;;;;;;;7.32;2.53;;;13.80;90.70;;;;;;4921206;29;20024;-89
2022/07/19 03:14:49;;;;;;;6.05;2.30;;;13.70;90.70;;;;;;4921571;29;20253;-87
2022/07/19 03:17:14;;;;;;;8.48;2.08;;;13.70;91.00;;;;;;4903967;29;20357;-85
2022/07/19 03:25:24;;;;;;;5.32;2.08;;;13.60;90.80;;;;;;4882018;29;20513;-88
2022/07/19 03:27:58;;;;;;;4.50;1.90;;;13.60;91.00;;;;;;4882021;29;20040;-89
2022/07/19 03:30:24;;;;;;;3.90;2.00;;;13.50;91.50;;;;;;4882261;29;20032;-86
2022/07/19 03:33:08;;;;;;;2.83;1.55;;;13.60;91.50;;;;;;4885335;29;20124;-89
2022/07/19 03:35:34;;;;;;;;;;;13.50;91.40;;;;;;5403478;23;20055;-89
2022/07/19 03:38:00;;;;;;;8.90;2.30;;;13.70;91.30;;;;;;4889207;29;19911;-86
2022/07/19 03:44:01;;;;;;;5.10;1.92;;;13.40;92.00;;;;;;4865217;29;20041;-89
2022/07/19 03:46:51;;;;;;;3.97;1.80;;;13.40;92.10;;;;;;4849168;29;20533;-87
2022/07/19 03:49:41;;;;;;;6.38;2.15;;;13.30;92.10;;;;;;4865943;29;20037;-90
2022/07/19 03:52:14;;;;;;;3.63;2.00;;;13.30;92.20;;;;;;4865901;29;20332;-88
2022/07/19 04:02:51;;;;;;;4.20;2.03;;;13.30;92.50;;;;;;4741841;23;20060;-89
2022/07/19 04:05:17;;;;;;;4.97;1.92;;;13.40;92.60;;;;;;4888454;29;20092;-83
2022/07/19 04:07:49;;;;;;;4.07;2.10;;;13.40;92.30;;;;;;4948594;23;20504;-88
2022/07/19 04:13:36;;;;;;;6.70;2.97;;;13.50;92.90;;;;;;4905510;29;20548;-88
2022/07/19 04:16:39;;;;;;;5.07;2.42;;;13.50;92.10;;;;;;4904281;29;20096;-89
2022/07/19 04:19:17;;;;;;;9.35;4.32;;;14.10;92.50;;;;;;4904369;29;20028;-89
2022/07/19 04:21:46;;;;;;;7.20;3.30;;;13.60;92.60;;;;;;4904628;29;20048;-88
2022/07/19 04:24:11;;;;;;;4.40;2.38;;;13.70;92.30;;;;;;4905252;29;20025;-85
2022/07/19 04:26:38;;;;;;;6.15;2.42;;;13.70;92.20;;;;;;4905138;29;20079;-87
2022/07/19 04:29:03;;;;;;;6.95;2.55;;;13.70;92.20;;;;;;4903636;29;20157;-83
2022/07/19 04:33:59;;;;;;;6.20;2.65;;;13.80;92.20;;;;;;4940760;28;20071;-86
2022/07/19 04:38:57;;;;;;;3.72;2.30;;;14.00;91.80;;;;;;4956612;23;20070;-87
2022/07/19 04:41:25;;;;;;;4.32;2.28;;;14.10;91.60;;;;;;4926034;28;20059;-84
2022/07/19 04:43:51;;;;;;;4.68;2.58;;;14.10;91.50;;;;;;4925803;29;20070;-86
2022/07/19 04:46:17;;;;;;;7.47;2.50;;;14.30;91.40;;;;;;4943624;29;20506;-85
2022/07/19 04:48:42;;;;;;;9.68;3.90;;;14.30;91.30;;;;;;4925002;29;20487;-85
2022/07/19 04:51:08;;;;;;;5.28;2.50;;;14.30;91.20;;;;;;4925279;29;20066;-85
2022/07/19 04:53:34;;;;;;;4.18;2.08;;;14.40;91.00;;;;;;4925071;29;20038;-87
2022/07/19 04:56:00;;;;;;;5.18;2.42;;;14.50;90.80;;;;;;4925041;29;20054;-88
2022/07/19 04:58:25;;;;;;;5.82;2.85;;;14.60;90.60;;;;;;4942374;29;20225;-85
2022/07/19 05:00:51;;;;;;;6.63;2.42;;;14.60;90.60;;;;;;4924627;29;20353;-87
2022/07/19 05:03:17;;;;;;;3.97;2.00;;;14.60;90.60;;;;;;4941994;29;20507;-84
2022/07/19 05:05:43;;;;;;;5.28;2.42;;;14.80;90.40;;;;;;4924718;29;20573;-86
2022/07/19 05:08:08;;;;;;;7.10;2.80;;;14.80;90.40;;;;;;4941913;29;20326;-83
2022/07/19 05:10:35;;;;;;;6.45;2.65;;;14.90;90.20;;;;;;4924538;29;20249;-82
2022/07/19 05:13:01;;;;;;;8.90;3.00;;;15.00;90.20;;;;;;4942100;29;20054;-85
2022/07/19 05:15:26;;;;;;;20.90;7.90;;;15.10;89.80;;;;;;4941943;29;20043;-84
2022/07/19 05:17:52;;;;;;;25.27;9.10;;;15.20;89.60;;;;;;4924845;29;20035;-85
2022/07/19 05:20:18;;;;;;;20.63;8.55;;;15.30;89.00;;;;;;4926657;29;20524;-84
2022/07/19 05:22:44;;;;;;;17.40;7.55;;;15.40;88.70;;;;;;4922669;29;20040;-83
2022/07/19 05:25:14;;;;;;;9.63;3.45;;;15.50;88.90;;;;;;4923442;29;20135;-81
2022/07/19 05:27:39;;;;;;;7.18;3.00;;;15.50;89.40;;;;;;4906228;29;20114;-83
2022/07/19 05:30:22;;;;;;;11.30;4.13;;;15.70;88.70;;;;;;4906258;29;20032;-85
2022/07/19 05:32:54;;;;;;;112.38;41.10;;;16.60;88.30;;;;;;4923192;29;20047;-83
2022/07/19 05:39:24;;;;;;;6.72;3.20;;;17.60;88.00;;;;;;4924692;29;20047;-86
2022/07/19 05:42:35;;;;;;;10.88;4.32;;;17.00;88.30;;;;;;4922781;29;20048;-85
2022/07/19 05:45:22;;;;;;;10.45;3.80;;;16.10;87.60;;;;;;4922192;29;20523;-83
2022/07/19 05:55:56;;;;;;;6.88;3.22;;;15.90;86.20;;;;;;4825400;29;20190;-85
2022/07/19 06:02:09;;;;;;;6.80;3.00;;;16.90;84.90;;;;;;4790148;29;20506;-83
2022/07/19 06:04:50;;;;;;;8.32;3.20;;;17.20;82.30;;;;;;4774109;29;20773;-84
2022/07/19 06:07:18;;;;;;;8.80;3.65;;;17.40;82.30;;;;;;4789059;29;20031;-85
2022/07/19 06:10:03;;;;;;;8.23;3.20;;;17.30;83.20;;;;;;4774125;29;20057;-84
2022/07/19 06:12:43;;;;;;;7.97;3.15;;;17.90;83.00;;;;;;4789162;29;20111;-85
2022/07/19 06:15:30;;;;;;;11.02;3.63;;;17.80;83.00;;;;;;4788547;29;20043;-86
2022/07/19 06:18:09;;;;;;;;;;;;;;;;;;;;;
2022/07/19 06:23:13;;;;;;;9.68;3.53;;;18.00;81.10;;;;;;5050923;23;20419;-82
2022/07/19 06:26:01;;;;;;;12.50;3.85;;;18.00;79.70;;;;;;4901556;29;20331;-85
2022/07/19 06:28:33;;;;;;;6.63;3.20;;;18.80;80.40;;;;;;4885307;29;20476;-85
2022/07/19 06:31:18;;;;;;;8.85;3.60;;;18.20;80.00;;;;;;4861373;29;20037;-83
2022/07/19 06:37:12;;;;;;;6.60;2.85;;;18.50;78.90;;;;;;4788805;29;20039;-87
2022/07/19 06:40:08;;;;;;;5.70;2.78;;;20.20;79.80;;;;;;4773492;29;20058;-86
2022/07/19 06:43:00;;;;;;;4.85;2.42;;;20.20;78.90;;;;;;4757998;29;20057;-85
2022/07/19 06:45:29;;;;;;;7.65;2.70;;;19.00;78.00;;;;;;4773676;29;20038;-86
2022/07/19 06:48:29;;;;;;;8.23;3.30;;;19.10;77.20;;;;;;4788872;29;20062;-85
2022/07/19 06:51:39;;;;;;;7.90;3.28;;;19.20;75.90;;;;;;4753202;30;20098;-85
2022/07/19 06:54:23;;;;;;;8.50;2.92;;;18.90;76.20;;;;;;4683266;30;20396;-85
2022/07/19 07:00:30;;;;;;;8.32;2.75;;;20.20;77.00;;;;;;4682709;30;20374;-84
2022/07/19 07:03:08;;;;;;;6.90;2.30;;;20.00;75.40;;;;;;4631300;30;20070;-83
2022/07/19 07:05:48;;;;;;;5.80;3.03;;;19.70;75.50;;;;;;5121733;23;20056;-83
2022/07/19 07:08:14;;;;;;;7.47;2.67;;;20.30;75.00;;;;;;4884799;29;20044;-84
2022/07/19 07:10:40;;;;;;;5.80;2.50;;;19.80;73.60;;;;;;4902176;29;20345;-85
2022/07/19 07:13:06;;;;;;;7.53;2.83;;;20.00;73.60;;;;;;4885338;29;20032;-85
2022/07/19 07:15:32;;;;;;;6.65;3.10;;;20.20;72.30;;;;;;4884830;29;20067;-85
2022/07/19 07:18:29;;;;;;;7.00;2.70;;;20.40;71.70;;;;;;4884507;29;20350;-83
2022/07/19 07:21:04;;;;;;;7.18;2.90;;;21.30;71.60;;;;;;4867889;29;20047;-84
2022/07/19 07:23:37;;;;;;;5.93;2.58;;;20.60;71.20;;;;;;4866500;29;20059;-85
2022/07/19 07:33:21;;;;;;;5.22;2.10;;;21.30;68.80;;;;;;4824380;29;20037;-85
2022/07/19 07:35:58;;;;;;;5.18;2.17;;;19.90;67.70;;;;;;4824513;29;20462;-85
2022/07/19 07:38:44;;;;;;;6.93;2.13;;;21.50;68.80;;;;;;4825023;29;20553;-82
2022/07/19 07:57:13;;;;;;;7.55;2.60;;;22.30;63.90;;;;;;4863054;29;20290;-84
2022/07/19 08:12:22;;;;;;;10.07;3.00;;;23.20;62.80;;;;;;4966521;23;20100;-84
2022/07/19 08:14:48;;;;;;;6.15;2.50;;;23.00;61.20;;;;;;4901328;29;20035;-83
2022/07/19 08:17:15;;;;;;;7.03;2.30;;;23.20;61.30;;;;;;4902791;29;20043;-85
2022/07/19 08:19:41;;;;;;;5.95;2.70;;;23.30;61.30;;;;;;4887101;29;20046;-82
2022/07/19 08:22:07;;;;;;;5.60;2.42;;;23.30;61.50;;;;;;4887393;29;20451;-83
2022/07/19 08:24:33;;;;;;;6.40;2.75;;;23.50;61.50;;;;;;4905078;29;20044;-85
2022/07/19 08:26:59;;;;;;;6.57;2.45;;;23.40;60.40;;;;;;4886990;29;20095;-82
2022/07/19 08:29:25;;;;;;;6.40;2.50;;;23.80;60.40;;;;;;4887515;29;20036;-83
2022/07/19 08:31:50;;;;;;;11.85;2.78;;;23.90;59.60;;;;;;4888248;29;20537;-83
2022/07/19 08:34:16;;;;;;;9.93;3.10;;;24.10;59.50;;;;;;4904122;29;20226;-84
2022/07/19 08:36:45;;;;;;;5.95;2.78;;;24.20;59.50;;;;;;4887160;29;20520;-85
2022/07/19 08:39:10;;;;;;;6.82;2.40;;;24.40;59.70;;;;;;4904225;29;20034;-88
2022/07/19 08:42:09;;;;;;;8.90;2.47;;;24.50;58.70;;;;;;4903854;29;20452;-87
2022/07/19 08:45:09;;;;;;;5.97;2.35;;;23.40;57.30;;;;;;5124601;23;20060;-86
2022/07/19 08:47:45;;;;;;;7.00;2.80;;;25.70;58.70;;;;;;4868341;29;20433;-86
2022/07/19 08:50:11;;;;;;;6.88;2.90;;;24.80;58.40;;;;;;4868274;29;20696;-85
2022/07/19 08:52:38;;;;;;;5.32;2.47;;;24.90;58.00;;;;;;4885115;29;20037;-86
2022/07/19 08:55:04;;;;;;;5.13;2.25;;;25.20;57.40;;;;;;4885074;29;20099;-84
2022/07/19 09:00:15;;;;;;;7.00;2.50;;;25.50;56.00;;;;;;4885380;29;20043;-87
2022/07/19 09:02:57;;;;;;;6.18;2.63;;;25.60;56.10;;;;;;4868295;29;20052;-82
2022/07/19 09:05:24;;;;;;;5.72;2.40;;;25.70;55.50;;;;;;4868321;29;20408;-85
2022/07/19 09:08:16;;;;;;;6.80;2.97;;;25.90;54.80;;;;;;4885733;29;20219;-83
2022/07/19 09:13:33;;;;;;;6.18;2.75;;;26.10;55.00;;;;;;4885213;29;20051;-85
2022/07/19 09:25:08;;;;;;;8.20;2.88;;;26.80;51.60;;;;;;4860146;29;20136;-84
2022/07/19 09:31:09;;;;;;;5.05;1.80;;;28.20;52.00;;;;;;4863128;29;20072;-85
2022/07/19 09:33:46;;;;;;;4.97;2.00;;;27.10;49.40;;;;;;4899410;23;20518;-84
2022/07/19 09:36:13;;;;;;;5.53;2.20;;;27.10;50.60;;;;;;4920207;29;20467;-84
2022/07/19 09:39:27;;;;;;;4.90;2.28;;;27.50;49.70;;;;;;4921711;29;20089;-86
2022/07/19 09:42:36;;;;;;;6.20;1.65;;;28.20;48.40;;;;;;4846766;29;20067;-85
2022/07/19 09:47:57;;;;;;;5.30;2.15;;;28.50;48.90;;;;;;5084538;23;20048;-83
2022/07/19 09:51:00;;;;;;;5.13;2.67;;;26.70;47.40;;;;;;4885554;29;20037;-84
2022/07/19 09:56:26;;;;;;;5.47;1.55;;;29.30;48.30;;;;;;5105597;23;20641;-84
2022/07/19 10:14:42;;;;;;;5.82;2.08;;;30.20;43.60;;;;;;5234623;23;20079;-83
2022/07/19 10:32:31;;;;;;;6.25;2.22;;;31.40;43.00;;;;;;4902191;29;20702;-85
2022/07/19 10:38:07;;;;;;;5.13;2.13;;;31.40;42.80;;;;;;4972915;23;20071;-85
2022/07/19 11:00:52;;;;;;;6.90;1.90;;;30.40;42.40;;;;;;4920412;29;20058;-86
2022/07/19 11:04:16;;;;;;;;;;;;;;;;;;;;;
2022/07/19 11:10:42;;;;;;;4.53;1.77;;;33.40;45.60;;;;;;4921091;29;20302;-84
2022/07/19 11:13:40;;;;;;;3.67;1.85;;;31.70;42.20;;;;;;4904076;29;20043;-85
2022/07/19 11:16:43;;;;;;;4.07;1.70;;;33.00;42.90;;;;;;4924292;29;20499;-85
2022/07/19 11:36:59;;;;;;;5.47;1.88;;;33.20;39.80;;;;;;4954520;23;20055;-84
2022/07/19 11:39:24;;;;;;;6.28;2.05;;;33.60;40.60;;;;;;4921552;29;20043;-83
2022/07/19 11:41:50;;;;;;;5.18;1.75;;;33.70;39.50;;;;;;4922698;29;20503;-81
2022/07/19 12:04:58;;;;;;;4.85;1.70;;;34.10;39.30;;;;;;4924613;29;20055;-85
2022/07/19 12:13:59;;;;;;;5.97;1.52;;;36.60;37.80;;;;;;4845964;29;20041;-85
2022/07/19 12:16:25;;;;;;;4.50;1.65;;;35.00;37.70;;;;;;4845498;29;20057;-84
2022/07/19 12:18:57;;;;;;;3.58;1.63;;;35.20;37.00;;;;;;4842262;29;20421;-82
2022/07/19 12:21:24;;;;;;;;;;;35.30;36.60;;;;;;4827169;29;20550;-84
2022/07/19 12:38:00;;;;;;;3.55;1.50;;;38.90;37.30;;;;;;4809235;29;20322;-82
2022/07/19 12:47:36;;;;;;;2.72;1.40;;;38.20;35.50;;;;;;4825321;29;20412;-84
2022/07/19 12:53:20;;;;;;;2.75;1.38;;;38.60;35.60;;;;;;4863590;29;20378;-83
2022/07/19 12:56:25;;;;;;;3.80;1.60;;;38.10;34.90;;;;;;4821634;29;20144;-83
2022/07/19 13:02:20;;;;;;;4.60;1.50;;;36.40;35.10;;;;;;4826688;29;20561;-85
2022/07/19 13:16:45;;;;;;;5.65;1.90;;;37.60;37.00;;;;;;4922913;29;20046;-83
2022/07/19 13:38:40;;;;;;;3.58;1.55;;;36.50;34.70;;;;;;4923078;29;20043;-86
2022/07/19 13:48:07;;;;;;;4.00;1.88;;;36.30;35.90;;;;;;4922571;29;20035;-86
2022/07/19 13:54:44;;;;;;;4.28;2.30;;;35.80;35.30;;;;;;4919501;29;20651;-81
2022/07/19 14:00:45;;;;;;;;;;;;;;;;;;;;;
2022/07/19 14:03:41;;;;;;;5.30;2.30;;;37.00;36.10;;;;;;4917810;29;20511;-84
2022/07/19 14:10:02;;;;;;;4.72;1.60;;;37.20;35.70;;;;;;4918486;29;20098;-84
2022/07/19 14:13:13;;;;;;;6.32;1.90;;;37.90;36.20;;;;;;4918189;29;20206;-84
2022/07/19 14:22:51;;;;;;;3.03;1.75;;;36.50;35.30;;;;;;4806331;29;20065;-84
2022/07/19 14:26:27;;;;;;;3.47;1.80;;;36.40;36.00;;;;;;4806400;29;20411;-84
2022/07/19 14:36:25;;;;;;;5.93;1.90;;;35.10;36.00;;;;;;4697242;30;20065;-84
2022/07/19 14:39:32;;;;;;;6.85;1.85;;;35.00;35.50;;;;;;4696663;30;20077;-82
2022/07/19 15:00:23;;;;;;;4.63;1.60;;;37.60;34.90;;;;;;5119534;23;20094;-84
2022/07/19 15:03:12;;;;;;;3.67;1.40;;;34.80;33.00;;;;;;4902729;29;20040;-84
2022/07/19 15:05:51;;;;;;;3.13;1.50;;;36.10;32.70;;;;;;4901613;29;20043;-83
2022/07/19 15:08:17;;;;;;;3.05;1.33;;;37.70;34.90;;;;;;4884241;29;20303;-82
2022/07/19 15:10:43;;;;;;;2.78;1.30;;;38.50;34.60;;;;;;4901192;29;20037;-83
2022/07/19 15:13:08;;;;;;;3.60;1.70;;;39.30;34.50;;;;;;4901235;29;20035;-82
2022/07/19 15:15:34;;;;;;;3.22;1.60;;;39.70;33.50;;;;;;4883900;29;20032;-82
2022/07/19 15:18:00;;;;;;;3.33;1.40;;;39.80;33.00;;;;;;4900059;29;20203;-84
2022/07/19 15:21:33;;;;;;;3.15;1.50;;;39.90;33.10;;;;;;5093767;23;20566;-85
2022/07/19 15:29:37;;;;;;;3.65;1.60;;;41.30;32.70;;;;;;5489262;23;20048;-83
2022/07/19 15:32:03;;;;;;;3.70;1.55;;;40.70;32.90;;;;;;4920615;29;20039;-83
2022/07/19 15:37:04;;;;;;;2.05;1.10;;;40.90;31.70;;;;;;4925592;23;20086;-82
2022/07/19 15:39:53;;;;;;;3.83;1.50;;;41.10;32.90;;;;;;5047843;23;20743;-84
2022/07/19 15:45:28;;;;;;;3.20;1.48;;;41.20;31.90;;;;;;5373111;23;20023;-83
2022/07/19 15:50:30;;;;;;;3.20;1.50;;;41.50;32.20;;;;;;5051968;23;20401;-85
2022/07/19 15:52:55;;;;;;;3.17;1.30;;;41.40;32.80;;;;;;4903058;29;20140;-86
2022/07/19 15:55:47;;;;;;;2.28;1.38;;;41.60;32.00;;;;;;4919617;29;20053;-85
2022/07/19 15:58:22;;;;;;;;;;;40.60;31.10;;;;;;4921165;29;20399;-84
2022/07/19 16:01:12;;;;;;;3.05;1.75;;;42.20;32.20;;;;;;4903178;29;19969;-84
2022/07/19 16:04:03;;;;;;;2.28;1.20;;;41.50;33.50;;;;;;4920525;29;20031;-83
2022/07/19 16:06:28;;;;;;;2.88;1.30;;;42.70;32.70;;;;;;4903084;29;20036;-84
2022/07/19 16:09:48;;;;;;;3.42;1.45;;;41.70;32.30;;;;;;4920114;29;20553;-85
2022/07/19 16:27:08;;;;;;;3.33;1.40;;;40.90;32.30;;;;;;4880369;29;20808;-83
2022/07/19 16:37:30;;;;;;;2.80;1.40;;;39.60;33.30;;;;;;4899623;29;20079;-84
2022/07/19 16:40:18;;;;;;;3.05;1.40;;;38.80;33.20;;;;;;4904601;29;20250;-85
2022/07/19 16:42:43;;;;;;;4.82;1.60;;;37.80;36.10;;;;;;4904482;29;20037;-83
2022/07/19 16:49:04;;;;;;;;;;;;;;;;;;;;;
2022/07/19 16:51:36;;;;;;;3.17;1.48;;;37.70;33.80;;;;;;4896384;29;20032;-85
2022/07/19 16:54:07;;;;;;;3.53;1.50;;;37.60;34.20;;;;;;4903980;29;20595;-84
2022/07/19 16:56:42;;;;;;;4.57;1.55;;;36.90;34.90;;;;;;4903876;29;20107;-85
2022/07/19 17:02:54;;;;;;;2.38;1.25;;;36.00;36.00;;;;;;4923551;23;20051;-86
2022/07/19 17:11:39;;;;;;;4.45;1.67;;;34.00;35.90;;;;;;5189175;23;20044;-84
2022/07/19 17:14:24;;;;;;;3.55;1.60;;;33.10;37.70;;;;;;4899896;23;20347;-85
2022/07/19 17:20:21;;;;;;;2.40;1.50;;;32.60;37.50;;;;;;5091774;23;20055;-86
2022/07/19 17:23:12;;;;;;;4.03;1.50;;;31.60;37.70;;;;;;4905257;29;20100;-85
2022/07/19 17:25:58;;;;;;;5.22;1.80;;;32.50;38.80;;;;;;4922451;29;20500;-83
2022/07/19 17:54:31;;;;;;;4.70;1.45;;;27.50;42.80;;;;;;5175517;24;20058;-85
2022/07/19 17:56:57;;;;;;;3.75;1.73;;;27.20;44.90;;;;;;4667612;30;20276;-84
2022/07/19 17:59:23;;;;;;;4.90;1.85;;;27.40;44.10;;;;;;4669189;30;20535;-85
2022/07/19 18:02:05;;;;;;;2.78;1.33;;;27.30;44.30;;;;;;4667263;30;20049;-86
2022/07/19 18:13:37;;;;;;;3.42;1.73;;;26.70;44.70;;;;;;4653086;30;20062;-86
2022/07/19 18:19:09;;;;;;;2.70;1.63;;;26.30;44.70;;;;;;4801625;24;20068;-85
2022/07/19 18:22:03;;;;;;;4.00;2.15;;;27.90;46.50;;;;;;4668154;30;20347;-85
2022/07/19 18:33:12;;;;;;;4.63;1.77;;;25.80;46.60;;;;;;4651091;30;20149;-86
2022/07/19 19:02:26;;;;;;;;;;;;;;;;;;;;;
2022/07/19 19:08:25;;;;;;;4.38;2.33;;;24.70;49.00;;;;;;4819678;24;20709;-85
2022/07/19 19:18:52;;;;;;;8.68;2.38;;;24.50;50.00;;;;;;5112099;24;20073;-84
2022/07/19 19:34:34;;;;;;;6.38;2.40;;;24.50;52.20;;;;;;4668445;30;20611;-82
2022/07/19 19:41:02;;;;;;;3.67;1.63;;;24.10;52.40;;;;;;4673390;24;20558;-84
2022/07/19 19:54:25;;;;;;;4.63;1.75;;;23.20;53.10;;;;;;4667423;30;20809;-85
2022/07/19 19:59:55;;;;;;;4.43;2.08;;;23.00;53.30;;;;;;4695588;24;20066;-84
2022/07/19 20:02:22;;;;;;;3.50;1.73;;;23.10;55.50;;;;;;4667420;30;20046;-84
2022/07/19 20:04:53;;;;;;;9.35;2.20;;;22.90;54.00;;;;;;4805634;24;20486;-84
2022/07/19 20:07:31;;;;;;;4.63;1.83;;;22.90;55.60;;;;;;4667287;30;20038;-84
2022/07/19 20:10:03;;;;;;;8.48;3.05;;;22.70;54.40;;;;;;4671833;24;20355;-83
2022/07/19 20:12:51;;;;;;;4.05;2.00;;;22.70;55.40;;;;;;4666533;30;20060;-84
2022/07/19 20:15:22;;;;;;;4.20;2.08;;;22.70;56.20;;;;;;4669000;30;20495;-84
2022/07/19 20:18:04;;;;;;;4.30;2.08;;;22.60;56.80;;;;;;4669381;30;20426;-84
2022/07/19 20:21:04;;;;;;;3.13;1.67;;;23.30;56.20;;;;;;4668502;30;20187;-84
2022/07/19 20:26:10;;;;;;;8.10;1.95;;;22.50;55.10;;;;;;4652253;30;20078;-84
2022/07/19 20:28:37;;;;;;;6.70;2.10;;;22.70;57.90;;;;;;4652237;30;20698;-84
2022/07/19 20:31:24;;;;;;;3.70;1.73;;;22.40;56.70;;;;;;4650276;30;20129;-83
2022/07/19 20:33:50;;;;;;;6.72;2.30;;;22.30;57.20;;;;;;4650592;30;20046;-83
2022/07/19 20:42:25;;;;;;;5.60;2.15;;;23.30;56.90;;;;;;4670703;30;20088;-85
2022/07/19 20:44:52;;;;;;;6.75;2.08;;;22.20;58.70;;;;;;4669183;30;20446;-84
2022/07/19 20:52:31;;;;;;;4.20;2.00;;;21.90;57.00;;;;;;4758171;24;20120;-83
2022/07/19 20:55:00;;;;;;;7.75;1.98;;;19.00;56.10;;;;;;4668067;30;20298;-85
2022/07/19 20:57:33;;;;;;;4.82;2.10;;;21.80;58.30;;;;;;4668825;30;20042;-85
2022/07/19 21:00:14;;;;;;;5.07;2.17;;;22.00;57.90;;;;;;4791063;24;20081;-83
2022/07/19 21:02:40;;;;;;;9.55;2.28;;;21.80;57.90;;;;;;4670035;30;20061;-82
2022/07/19 21:11:13;;;;;;;7.07;2.30;;;21.50;58.20;;;;;;4685511;24;20073;-84
2022/07/19 21:13:48;;;;;;;5.97;2.00;;;21.20;60.00;;;;;;4688791;30;20042;-85
2022/07/19 21:16:29;;;;;;;4.22;2.15;;;21.50;59.20;;;;;;4688543;30;20546;-84
2022/07/19 21:24:47;;;;;;;4.97;2.53;;;21.10;59.60;;;;;;4722192;24;20065;-84
2022/07/19 21:27:50;;;;;;;5.55;2.20;;;20.90;59.90;;;;;;4863790;24;20062;-84
2022/07/19 21:30:16;;;;;;;5.72;2.58;;;;;;;;;;4670381;30;20394;-83
2022/07/19 21:39:32;;;;;;;5.25;2.47;;;20.80;61.10;;;;;;4673404;24;20649;-84
2022/07/19 21:41:58;;;;;;;4.95;1.73;;;;;;;;;;4634291;30;20164;-82
2022/07/19 21:47:01;;;;;;;4.07;1.88;;;20.60;61.50;;;;;;3107601;24;20076;-84
2022/07/19 21:53:14;;;;;;;4.85;2.22;;;19.20;61.50;;;;;;4675730;30;20197;-84
2022/07/19 22:07:10;;;;;;;5.20;1.95;;;20.00;63.00;;;;;;4791633;24;20450;-83
2022/07/19 22:09:45;;;;;;;3.90;2.00;;;20.00;63.20;;;;;;4668899;30;20053;-83
2022/07/19 22:12:11;;;;;;;6.47;2.67;;;20.30;65.50;;;;;;4669195;30;20223;-83
2022/07/19 22:14:39;;;;;;;6.57;2.63;;;20.00;65.10;;;;;;4668848;30;20030;-83
2022/07/19 22:23:04;;;;;;;5.13;2.47;;;19.60;64.10;;;;;;4887719;24;20326;-80
2022/07/19 22:31:16;;;;;;;4.65;2.63;;;20.60;66.00;;;;;;4691854;24;20458;-85
2022/07/19 22:33:48;;;;;;;4.70;2.28;;;19.60;65.40;;;;;;4847840;24;20379;-83
2022/07/19 22:49:09;;;;;;;7.05;2.40;;;19.50;66.50;;;;;;4650900;30;20054;-86
2022/07/19 22:51:55;;;;;;;4.50;2.08;;;19.50;67.90;;;;;;4664213;30;20046;-84
2022/07/19 23:00:36;;;;;;;5.25;1.85;;;19.30;66.60;;;;;;4631526;30;20039;-85
2022/07/19 23:03:27;;;;;;;9.10;2.08;;;19.20;67.20;;;;;;4632030;30;20050;-84
2022/07/19 23:06:11;;;;;;;6.43;2.60;;;19.10;67.30;;;;;;4685322;24;20086;-85
2022/07/19 23:16:09;;;;;;;6.15;2.30;;;19.00;68.20;;;;;;4673157;24;20726;-84
2022/07/19 23:18:41;;;;;;;3.95;2.05;;;18.90;68.30;;;;;;4666740;30;20435;-85
2022/07/19 23:21:09;;;;;;;5.07;2.15;;;18.90;68.90;;;;;;4666536;30;20248;-82
2022/07/19 23:26:01;;;;;;;5.80;2.30;;;18.80;69.30;;;;;;4672489;24;20066;-82
2022/07/19 23:28:36;;;;;;;6.60;2.35;;;18.80;69.80;;;;;;4666617;30;20115;-85
2022/07/19 23:36:25;;;;;;;6.43;2.47;;;18.70;69.80;;;;;;4699139;24;20082;-84
2022/07/19 23:39:29;;;;;;;4.30;2.10;;;18.70;69.90;;;;;;4666740;30;20574;-85
2022/07/19 23:42:04;;;;;;;6.38;2.50;;;18.00;70.30;;;;;;4613995;30;20169;-84
2022/07/19 23:44:54;;;;;;;4.82;2.28;;;18.30;71.00;;;;;;4613926;31;20043;-84
2022/07/19 23:48:00;;;;;;;4.28;2.28;;;18.50;71.10;;;;;;4614231;31;20474;-83
2022/07/19 23:50:25;;;;;;;5.32;2.20;;;18.40;71.30;;;;;;4617450;30;20706;-84
2022/07/19 23:56:18;;;;;;;5.22;2.40;;;16.00;71.20;;;;;;4617436;30;20038;-85
